createdAt,value
2022-11-17T00:00:24.848Z,7.21
2022-11-17T00:02:52.773Z,7.26
2022-11-17T00:05:20.965Z,7.24
2022-11-17T00:07:50.006Z,7.24
2022-11-17T00:10:18.741Z,7.19
2022-11-17T00:13:14.052Z,7.20
2022-11-17T00:15:44.060Z,7.16
2022-11-17T00:18:29.598Z,7.18
2022-11-17T00:21:14.857Z,7.20
2022-11-17T00:23:48.681Z,7.32
2022-11-17T00:26:17.606Z,7.30
2022-11-17T00:28:47.115Z,7.28
2022-11-17T00:31:33.635Z,7.29
2022-11-17T00:34:07.608Z,7.35
2022-11-17T00:36:38.773Z,7.22
2022-11-17T00:39:07.273Z,7.14
2022-11-17T00:41:35.240Z,7.12
2022-11-17T00:44:05.046Z,7.18
2022-11-17T00:46:33.673Z,7.20
2022-11-17T00:49:01.687Z,7.07
2022-11-17T00:51:30.040Z,6.97
2022-11-17T00:53:57.933Z,7.11
2022-11-17T00:56:27.434Z,7.00
2022-11-17T00:58:55.472Z,7.03
2022-11-17T01:01:25.174Z,7.07
2022-11-17T01:04:03.310Z,7.13
2022-11-17T01:06:33.704Z,7.12
2022-11-17T01:09:02.138Z,7.05
2022-11-17T01:11:30.128Z,7.19
2022-11-17T01:13:59.559Z,7.09
2022-11-17T01:16:30.601Z,7.02
2022-11-17T01:19:00.665Z,7.03
2022-11-17T01:21:29.825Z,7.04
2022-11-17T01:23:59.779Z,7.00
2022-11-17T01:26:29.186Z,7.11
2022-11-17T01:28:57.291Z,7.21
2022-11-17T01:31:27.428Z,7.00
2022-11-17T01:33:57.655Z,7.00
2022-11-17T01:36:27.844Z,7.04
2022-11-17T01:38:56.402Z,6.94
2022-11-17T01:41:27.172Z,6.81
2022-11-17T01:43:56.547Z,6.83
2022-11-17T01:46:33.336Z,6.96
2022-11-17T01:49:08.402Z,6.96
2022-11-17T01:51:41.135Z,6.91
2022-11-17T01:54:12.493Z,6.88
2022-11-17T01:56:44.644Z,6.64
2022-11-17T01:59:20.097Z,6.60
2022-11-17T02:01:56.694Z,6.61
2022-11-17T02:04:30.926Z,6.62
2022-11-17T02:07:06.523Z,6.62
2022-11-17T02:09:38.599Z,6.71
2022-11-17T02:12:09.803Z,6.67
2022-11-17T02:14:37.826Z,6.67
2022-11-17T02:17:13.712Z,6.61
2022-11-17T02:19:45.504Z,6.75
2022-11-17T02:22:34.921Z,6.78
2022-11-17T02:25:30.261Z,6.71
2022-11-17T02:28:12.108Z,6.63
2022-11-17T02:30:47.898Z,6.60
2022-11-17T02:33:24.311Z,6.59
2022-11-17T02:35:59.833Z,6.59
2022-11-17T02:38:34.178Z,6.58
2022-11-17T02:41:08.985Z,6.64
2022-11-17T02:44:03.758Z,6.75
2022-11-17T02:46:38.438Z,6.48
2022-11-17T02:49:13.484Z,6.53
2022-11-17T02:51:44.116Z,6.52
2022-11-17T02:54:13.274Z,6.52
2022-11-17T02:56:44.556Z,6.58
2022-11-17T02:59:16.494Z,6.58
2022-11-17T03:02:13.915Z,6.50
2022-11-17T03:04:51.444Z,6.50
2022-11-17T03:07:32.303Z,6.47
2022-11-17T03:10:10.680Z,6.51
2022-11-17T03:12:48.212Z,6.48
2022-11-17T03:15:26.576Z,6.53
2022-11-17T03:18:04.329Z,6.42
2022-11-17T03:20:38.365Z,6.29
2022-11-17T03:23:12.249Z,6.22
2022-11-17T03:25:46.472Z,6.24
2022-11-17T03:28:18.205Z,6.21
2022-11-17T03:30:49.387Z,6.11
2022-11-17T03:33:21.259Z,6.27
2022-11-17T03:35:56.119Z,6.19
2022-11-17T03:38:27.855Z,6.18
2022-11-17T03:40:59.385Z,6.17
2022-11-17T03:43:29.464Z,6.23
2022-11-17T03:46:03.830Z,6.17
2022-11-17T03:48:38.011Z,6.12
2022-11-17T03:51:10.414Z,6.12
2022-11-17T03:53:38.666Z,6.10
2022-11-17T03:56:15.012Z,6.13
2022-11-17T03:58:56.472Z,6.04
2022-11-17T04:01:26.969Z,6.05
2022-11-17T04:03:54.907Z,6.06
2022-11-17T04:06:22.946Z,5.95
2022-11-17T04:08:50.748Z,6.00
2022-11-17T04:11:36.269Z,5.98
2022-11-17T04:14:21.634Z,5.97
2022-11-17T04:16:50.918Z,5.98
2022-11-17T04:19:18.768Z,6.02
2022-11-17T04:21:46.649Z,6.07
2022-11-17T04:24:14.629Z,6.12
2022-11-17T04:26:59.846Z,6.12
2022-11-17T04:29:28.579Z,6.03
2022-11-17T04:31:57.829Z,5.97
2022-11-17T04:34:25.652Z,5.97
2022-11-17T04:36:53.558Z,6.06
2022-11-17T04:39:21.408Z,6.13
2022-11-17T04:41:54.064Z,6.12
2022-11-17T04:44:23.900Z,5.93
2022-11-17T04:46:52.013Z,6.02
2022-11-17T04:49:22.262Z,5.97
2022-11-17T04:51:51.386Z,5.84
2022-11-17T04:54:21.722Z,5.75
2022-11-17T04:56:49.626Z,5.76
2022-11-17T04:59:17.476Z,5.64
2022-11-17T05:01:45.842Z,5.70
2022-11-17T05:04:15.438Z,5.88
2022-11-17T05:06:46.186Z,5.95
2022-11-17T05:09:16.768Z,5.94
2022-11-17T05:12:03.021Z,5.82
2022-11-17T05:14:31.260Z,5.70
2022-11-17T05:17:10.899Z,5.70
2022-11-17T05:19:41.619Z,5.82
2022-11-17T05:22:25.710Z,5.86
2022-11-17T05:24:53.915Z,5.85
2022-11-17T05:27:22.242Z,5.73
2022-11-17T05:29:50.438Z,5.70
2022-11-17T05:32:18.599Z,5.67
2022-11-17T05:34:46.631Z,5.83
2022-11-17T05:37:15.929Z,5.70
2022-11-17T05:39:43.774Z,5.69
2022-11-17T05:42:11.806Z,5.74
2022-11-17T05:44:40.112Z,5.66
2022-11-17T05:47:08.092Z,5.73
2022-11-17T05:49:35.972Z,5.65
2022-11-17T05:52:03.919Z,5.64
2022-11-17T05:54:33.125Z,5.66
2022-11-17T05:57:04.601Z,5.67
2022-11-17T05:59:35.147Z,5.54
2022-11-17T06:02:08.447Z,5.51
2022-11-17T06:04:36.761Z,5.55
2022-11-17T06:07:04.797Z,5.59
2022-11-17T06:09:36.585Z,5.65
2022-11-17T06:12:06.383Z,5.59
2022-11-17T06:14:34.843Z,5.50
2022-11-17T06:17:06.093Z,5.73
2022-11-17T06:19:38.362Z,5.86
2022-11-17T06:22:14.295Z,5.64
2022-11-17T06:24:45.792Z,5.70
2022-11-17T06:27:16.772Z,5.72
2022-11-17T06:29:46.996Z,5.65
2022-11-17T06:32:15.420Z,5.64
2022-11-17T06:34:47.976Z,5.75
2022-11-17T06:37:18.419Z,5.65
2022-11-17T06:39:48.081Z,5.63
2022-11-17T06:42:16.007Z,5.64
2022-11-17T06:44:44.538Z,5.46
2022-11-17T06:47:12.522Z,5.53
2022-11-17T06:49:40.422Z,5.61
2022-11-17T06:52:08.501Z,5.54
2022-11-17T06:54:36.422Z,5.58
2022-11-17T06:57:05.697Z,5.70
2022-11-17T06:59:33.665Z,5.67
2022-11-17T07:02:01.526Z,5.69
2022-11-17T07:04:29.370Z,5.53
2022-11-17T07:06:57.259Z,5.57
2022-11-17T07:09:25.523Z,5.50
2022-11-17T07:11:53.374Z,5.48
2022-11-17T07:14:22.558Z,5.45
2022-11-17T07:16:50.577Z,5.48
2022-11-17T07:19:18.702Z,5.52
2022-11-17T07:21:46.519Z,5.52
2022-11-17T07:24:14.451Z,5.66
2022-11-17T07:26:42.309Z,5.53
2022-11-17T07:29:10.214Z,5.43
2022-11-17T07:31:39.762Z,5.52
2022-11-17T07:34:07.615Z,5.41
2022-11-17T07:36:35.578Z,5.39
2022-11-17T07:39:03.569Z,5.49
2022-11-17T07:41:32.058Z,5.44
2022-11-17T07:44:00.284Z,5.47
2022-11-17T07:46:28.867Z,5.48
2022-11-17T07:48:58.081Z,5.63
2022-11-17T07:51:26.369Z,5.55
2022-11-17T07:53:54.374Z,5.55
2022-11-17T07:56:22.742Z,5.56
2022-11-17T07:58:50.582Z,5.46
2022-11-17T08:01:18.588Z,5.48
2022-11-17T08:03:46.525Z,5.54
2022-11-17T08:06:16.929Z,5.55
2022-11-17T08:08:44.960Z,5.48
2022-11-17T08:11:16.276Z,5.44
2022-11-17T08:13:44.136Z,5.47
2022-11-17T08:16:13.515Z,5.54
2022-11-17T08:18:43.101Z,5.69
2022-11-17T08:21:16.154Z,5.61
2022-11-17T08:23:44.084Z,5.56
2022-11-17T08:26:12.825Z,5.56
2022-11-17T08:28:41.081Z,5.63
2022-11-17T08:31:10.265Z,5.62
2022-11-17T08:33:38.180Z,5.59
2022-11-17T08:36:07.479Z,5.71
2022-11-17T08:38:37.312Z,5.75
2022-11-17T08:41:06.951Z,5.79
2022-11-17T08:43:34.915Z,5.71
2022-11-17T08:46:03.108Z,5.63
2022-11-17T08:48:31.846Z,5.58
2022-11-17T08:50:59.944Z,5.56
2022-11-17T08:53:27.984Z,5.55
2022-11-17T08:55:57.455Z,5.63
2022-11-17T08:58:25.328Z,5.55
2022-11-17T09:00:55.108Z,5.65
2022-11-17T09:03:23.775Z,5.74
2022-11-17T09:05:51.678Z,5.76
2022-11-17T09:08:44.444Z,5.88
2022-11-17T09:11:11.920Z,5.69
2022-11-17T09:13:40.882Z,5.80
2022-11-17T09:16:11.299Z,5.72
2022-11-17T09:18:41.394Z,5.75
2022-11-17T09:21:11.164Z,5.91
2022-11-17T09:23:39.576Z,5.83
2022-11-17T09:26:11.209Z,5.94
2022-11-17T09:28:39.587Z,5.98
2022-11-17T09:31:08.832Z,5.93
2022-11-17T09:33:37.403Z,5.83
2022-11-17T09:36:07.370Z,5.99
2022-11-17T09:38:35.627Z,5.97
2022-11-17T09:41:22.688Z,5.97
2022-11-17T09:43:58.392Z,6.03
2022-11-17T09:46:34.745Z,6.08
2022-11-17T09:49:13.868Z,6.07
2022-11-17T09:51:46.402Z,6.18
2022-11-17T09:54:22.768Z,5.96
2022-11-17T09:56:53.594Z,6.03
2022-11-17T09:59:22.619Z,6.03
2022-11-17T10:01:50.533Z,6.05
2022-11-17T10:04:19.139Z,6.10
2022-11-17T10:06:51.448Z,6.18
2022-11-17T10:09:29.313Z,6.13
2022-11-17T10:12:14.800Z,6.17
2022-11-17T10:14:43.223Z,6.16
2022-11-17T10:17:12.796Z,6.25
2022-11-17T10:19:41.525Z,6.16
2022-11-17T10:22:21.475Z,6.15
2022-11-17T10:24:51.646Z,6.19
2022-11-17T10:27:23.931Z,6.15
2022-11-17T10:30:03.542Z,6.11
2022-11-17T10:32:33.901Z,6.10
2022-11-17T10:35:15.803Z,6.21
2022-11-17T10:37:52.606Z,6.23
2022-11-17T10:40:25.312Z,6.19
2022-11-17T10:43:06.547Z,6.29
2022-11-17T10:45:35.423Z,6.20
2022-11-17T10:48:11.801Z,6.10
2022-11-17T10:50:52.488Z,6.12
2022-11-17T10:53:46.129Z,6.22
2022-11-17T10:56:17.729Z,6.30
2022-11-17T10:59:13.846Z,6.15
2022-11-17T11:01:43.541Z,6.20
2022-11-17T11:04:33.536Z,6.16
2022-11-17T11:07:12.700Z,6.04
2022-11-17T11:09:47.543Z,6.05
2022-11-17T11:12:18.579Z,6.10
2022-11-17T11:14:52.843Z,6.16
2022-11-17T11:17:21.377Z,6.18
2022-11-17T11:19:53.547Z,6.15
2022-11-17T11:22:32.639Z,6.14
2022-11-17T11:25:11.525Z,6.25
2022-11-17T11:27:53.144Z,6.16
2022-11-17T11:30:22.617Z,6.24
2022-11-17T11:33:04.468Z,6.24
2022-11-17T11:35:40.438Z,6.06
2022-11-17T11:38:22.137Z,6.16
2022-11-17T11:41:05.980Z,6.21
2022-11-17T11:43:40.825Z,6.17
2022-11-17T11:46:17.156Z,6.24
2022-11-17T11:48:48.154Z,6.29
2022-11-17T11:51:19.593Z,6.32
2022-11-17T11:53:53.084Z,6.29
2022-11-17T11:56:26.931Z,6.09
2022-11-17T11:59:01.792Z,6.03
2022-11-17T12:01:41.909Z,5.87
2022-11-17T12:04:22.534Z,5.94
2022-11-17T12:06:56.434Z,5.95
2022-11-17T12:09:49.288Z,5.89
2022-11-17T12:12:19.938Z,5.88
2022-11-17T12:15:31.004Z,5.82
2022-11-17T12:18:04.080Z,5.81
2022-11-17T12:20:51.186Z,5.84
2022-11-17T12:23:29.977Z,5.87
2022-11-17T12:25:59.661Z,5.92
2022-11-17T12:28:30.930Z,5.86
2022-11-17T12:31:05.091Z,5.93
2022-11-17T12:34:19.897Z,5.74
2022-11-17T12:37:08.129Z,5.84
2022-11-17T12:40:03.939Z,5.97
2022-11-17T12:42:37.736Z,5.98
2022-11-17T12:45:10.496Z,5.96
2022-11-17T12:47:40.035Z,6.00
2022-11-17T12:50:41.578Z,5.92
2022-11-17T12:53:32.136Z,5.93
2022-11-17T12:56:31.964Z,5.97
2022-11-17T12:59:12.831Z,5.98
2022-11-17T13:01:47.561Z,6.00
2022-11-17T13:04:18.349Z,6.01
2022-11-17T13:07:06.497Z,6.06
2022-11-17T13:09:36.419Z,5.92
2022-11-17T13:12:06.451Z,5.82
2022-11-17T13:14:35.880Z,5.90
2022-11-17T13:17:04.510Z,5.90
2022-11-17T13:19:35.883Z,5.89
2022-11-17T13:22:07.006Z,5.93
2022-11-17T13:24:37.375Z,5.91
2022-11-17T13:27:08.152Z,5.78
2022-11-17T13:29:36.633Z,5.89
2022-11-17T13:32:14.637Z,5.84
2022-11-17T13:34:50.801Z,5.91
2022-11-17T13:37:22.773Z,5.97
2022-11-17T13:40:01.712Z,5.98
2022-11-17T13:42:33.138Z,6.05
2022-11-17T13:45:04.014Z,6.06
2022-11-17T13:47:46.879Z,6.11
2022-11-17T13:50:38.311Z,5.98
2022-11-17T13:53:23.754Z,5.83
2022-11-17T13:55:53.401Z,5.75
2022-11-17T13:58:29.931Z,5.79
2022-11-17T14:00:59.375Z,5.73
2022-11-17T14:03:36.541Z,5.67
2022-11-17T14:06:06.964Z,5.69
2022-11-17T14:08:37.766Z,5.64
2022-11-17T14:11:08.898Z,5.63
2022-11-17T14:13:40.230Z,5.53
2022-11-17T14:16:21.942Z,5.54
2022-11-17T14:18:58.245Z,5.52
2022-11-17T14:21:26.536Z,5.62
2022-11-17T14:24:05.430Z,5.62
2022-11-17T14:26:33.680Z,5.71
2022-11-17T14:29:03.092Z,5.64
2022-11-17T14:31:32.035Z,5.71
2022-11-17T14:34:00.041Z,5.54
2022-11-17T14:36:28.316Z,5.63
2022-11-17T14:38:56.223Z,5.65
2022-11-17T14:41:25.610Z,5.57
2022-11-17T14:43:53.449Z,5.57
2022-11-17T14:46:23.988Z,5.54
2022-11-17T14:48:52.676Z,5.60
2022-11-17T14:51:21.371Z,5.54
2022-11-17T14:53:49.437Z,5.59
2022-11-17T14:56:19.385Z,5.55
2022-11-17T14:58:49.712Z,5.52
2022-11-17T15:01:19.943Z,5.71
2022-11-17T15:03:48.103Z,5.61
2022-11-17T15:06:19.826Z,5.46
2022-11-17T15:08:48.719Z,5.52
2022-11-17T15:11:19.052Z,5.46
2022-11-17T15:13:48.254Z,5.50
2022-11-17T15:16:16.112Z,5.45
2022-11-17T15:18:46.694Z,5.58
2022-11-17T15:21:16.278Z,5.65
2022-11-17T15:23:45.329Z,5.58
2022-11-17T15:26:15.133Z,5.43
2022-11-17T15:28:43.281Z,5.45
2022-11-17T15:31:14.631Z,5.50
2022-11-17T15:33:43.570Z,5.39
2022-11-17T15:36:12.936Z,5.49
2022-11-17T15:38:41.703Z,5.56
2022-11-17T15:41:12.370Z,5.53
2022-11-17T15:43:41.954Z,5.51
2022-11-17T15:46:11.562Z,5.53
2022-11-17T15:48:43.307Z,5.49
2022-11-17T15:51:12.647Z,5.45
2022-11-17T15:53:41.123Z,5.38
2022-11-17T15:56:11.498Z,5.41
2022-11-17T15:58:40.680Z,5.34
2022-11-17T16:01:10.588Z,5.46
2022-11-17T16:03:40.257Z,5.58
2022-11-17T16:06:10.762Z,5.62
2022-11-17T16:08:39.319Z,5.67
2022-11-17T16:11:07.646Z,5.56
2022-11-17T16:13:35.477Z,5.57
2022-11-17T16:16:04.333Z,5.58
2022-11-17T16:18:35.390Z,5.56
2022-11-17T16:21:05.191Z,5.65
2022-11-17T16:23:40.466Z,5.51
2022-11-17T16:26:09.186Z,5.56
2022-11-17T16:28:37.265Z,5.49
2022-11-17T16:31:15.843Z,5.51
2022-11-17T16:33:48.269Z,5.45
2022-11-17T16:36:16.329Z,5.48
2022-11-17T16:39:02.307Z,5.55
2022-11-17T16:41:33.450Z,5.49
2022-11-17T16:44:02.098Z,5.52
2022-11-17T16:46:31.836Z,5.46
2022-11-17T16:49:03.032Z,5.50
2022-11-17T16:51:31.551Z,5.38
2022-11-17T16:54:02.404Z,5.46
2022-11-17T16:56:30.710Z,5.46
2022-11-17T16:58:58.775Z,5.37
2022-11-17T17:01:28.626Z,5.38
2022-11-17T17:03:58.151Z,5.41
2022-11-17T17:06:26.906Z,5.33
2022-11-17T17:08:55.545Z,5.26
2022-11-17T17:11:25.307Z,5.39
2022-11-17T17:13:53.112Z,5.40
2022-11-17T17:16:21.618Z,5.39
2022-11-17T17:18:54.907Z,5.41
2022-11-17T17:21:22.826Z,5.31
2022-11-17T17:23:50.705Z,5.44
2022-11-17T17:26:21.944Z,5.48
2022-11-17T17:28:53.284Z,5.50
2022-11-17T17:31:23.381Z,5.55
2022-11-17T17:33:52.581Z,5.72
2022-11-17T17:36:22.033Z,5.57
2022-11-17T17:38:55.605Z,5.44
2022-11-17T17:41:25.910Z,5.51
2022-11-17T17:44:00.059Z,5.53
2022-11-17T17:46:30.918Z,5.46
2022-11-17T17:48:59.391Z,5.44
2022-11-17T17:51:29.461Z,5.46
2022-11-17T17:54:00.768Z,5.43
2022-11-17T17:56:30.519Z,5.51
2022-11-17T17:59:00.599Z,5.58
2022-11-17T18:01:30.641Z,5.50
2022-11-17T18:04:04.712Z,5.48
2022-11-17T18:06:37.137Z,5.59
2022-11-17T18:09:05.527Z,5.59
2022-11-17T18:11:33.534Z,5.49
2022-11-17T18:14:05.228Z,5.54
2022-11-17T18:16:35.079Z,5.52
2022-11-17T18:19:05.005Z,5.62
2022-11-17T18:21:33.293Z,5.55
2022-11-17T18:24:02.886Z,5.52
2022-11-17T18:26:32.883Z,5.52
2022-11-17T18:29:03.743Z,5.41
2022-11-17T18:31:33.494Z,5.29
2022-11-17T18:34:03.069Z,5.33
2022-11-17T18:36:31.173Z,5.40
2022-11-17T18:38:59.657Z,5.48
2022-11-17T18:41:30.678Z,5.38
2022-11-17T18:43:58.809Z,5.43
2022-11-17T18:46:29.606Z,5.46
2022-11-17T18:48:58.088Z,5.38
2022-11-17T18:51:27.514Z,5.37
2022-11-17T18:53:56.989Z,5.33
2022-11-17T18:56:26.812Z,5.33
2022-11-17T18:58:54.628Z,5.39
2022-11-17T19:01:24.399Z,5.26
2022-11-17T19:03:55.030Z,5.37
2022-11-17T19:06:25.693Z,5.41
2022-11-17T19:08:54.219Z,5.34
2022-11-17T19:11:23.812Z,5.36
2022-11-17T19:13:52.537Z,5.31
2022-11-17T19:16:21.933Z,5.26
2022-11-17T19:18:52.435Z,5.24
2022-11-17T19:21:25.645Z,5.24
2022-11-17T19:23:55.224Z,5.13
2022-11-17T19:26:25.015Z,5.19
2022-11-17T19:28:57.073Z,5.13
2022-11-17T19:31:25.693Z,5.09
2022-11-17T19:33:54.469Z,5.26
2022-11-17T19:36:25.113Z,5.13
2022-11-17T19:38:54.925Z,5.12
2022-11-17T19:41:25.006Z,5.15
2022-11-17T19:43:54.732Z,5.24
2022-11-17T19:46:23.444Z,5.21
2022-11-17T19:48:51.828Z,5.09
2022-11-17T19:51:21.508Z,5.02
2022-11-17T19:53:52.275Z,5.08
2022-11-17T19:56:20.894Z,4.86
2022-11-17T19:58:49.794Z,4.85
2022-11-17T20:01:19.968Z,4.92
2022-11-17T20:03:48.898Z,4.89
2022-11-17T20:06:18.371Z,5.00
2022-11-17T20:08:46.991Z,5.00
2022-11-17T20:11:17.831Z,4.95
2022-11-17T20:13:46.226Z,4.89
2022-11-17T20:16:15.601Z,4.89
2022-11-17T20:18:44.380Z,4.82
2022-11-17T20:21:13.986Z,4.72
2022-11-17T20:23:43.610Z,4.70
2022-11-17T20:26:13.697Z,4.79
2022-11-17T20:28:43.364Z,4.73
2022-11-17T20:31:12.812Z,4.76
2022-11-17T20:33:42.125Z,4.80
2022-11-17T20:36:13.631Z,4.80
2022-11-17T20:38:41.695Z,4.77
2022-11-17T20:41:09.820Z,4.77
2022-11-17T20:43:38.403Z,4.77
2022-11-17T20:46:07.857Z,4.80
2022-11-17T20:48:36.286Z,4.60
2022-11-17T20:51:06.468Z,4.76
2022-11-17T20:53:35.099Z,4.64
2022-11-17T20:56:04.383Z,4.59
2022-11-17T20:58:32.347Z,4.72
2022-11-17T21:01:00.464Z,4.72
2022-11-17T21:03:29.967Z,4.74
2022-11-17T21:06:00.654Z,4.77
2022-11-17T21:08:31.434Z,4.68
2022-11-17T21:11:01.172Z,4.63
2022-11-17T21:13:30.354Z,4.57
2022-11-17T21:16:10.392Z,4.51
2022-11-17T21:18:41.228Z,4.58
2022-11-17T21:21:09.666Z,4.60
2022-11-17T21:23:38.521Z,4.60
2022-11-17T21:26:07.414Z,4.63
2022-11-17T21:28:35.342Z,4.54
2022-11-17T21:31:06.354Z,4.48
2022-11-17T21:33:34.481Z,4.44
2022-11-17T21:36:05.170Z,4.45
2022-11-17T21:38:33.460Z,4.39
2022-11-17T21:41:04.622Z,4.36
2022-11-17T21:43:32.990Z,4.44
2022-11-17T21:46:03.966Z,4.46
2022-11-17T21:48:32.085Z,4.47
2022-11-17T21:51:00.111Z,4.53
2022-11-17T21:53:30.938Z,4.29
2022-11-17T21:56:02.215Z,4.34
2022-11-17T21:58:30.419Z,4.32
2022-11-17T22:00:58.558Z,4.47
2022-11-17T22:03:27.671Z,4.44
2022-11-17T22:06:01.015Z,4.33
2022-11-17T22:08:31.689Z,4.37
2022-11-17T22:11:04.351Z,4.41
2022-11-17T22:13:32.271Z,4.42
2022-11-17T22:16:05.109Z,4.48
2022-11-17T22:18:33.145Z,4.38
2022-11-17T22:21:01.058Z,4.36
2022-11-17T22:23:29.902Z,4.42
2022-11-17T22:26:01.144Z,4.35
2022-11-17T22:28:29.122Z,4.32
2022-11-17T22:30:57.366Z,4.33
2022-11-17T22:33:25.393Z,4.35
2022-11-17T22:35:53.360Z,4.42
2022-11-17T22:38:21.229Z,4.31
2022-11-17T22:40:49.220Z,4.41
2022-11-17T22:43:18.459Z,4.35
2022-11-17T22:45:46.314Z,4.28
2022-11-17T22:48:14.292Z,4.22
2022-11-17T22:50:42.194Z,4.23
2022-11-17T22:53:10.096Z,4.26
2022-11-17T22:55:38.112Z,4.30
2022-11-17T22:58:06.041Z,4.33
2022-11-17T23:00:35.242Z,4.29
2022-11-17T23:03:03.243Z,4.31
2022-11-17T23:05:31.159Z,4.27
2022-11-17T23:07:59.010Z,4.15
2022-11-17T23:10:27.038Z,4.18
2022-11-17T23:12:55.602Z,4.21
2022-11-17T23:15:23.503Z,4.15
2022-11-17T23:17:52.816Z,4.07
2022-11-17T23:20:20.669Z,4.11
2022-11-17T23:22:48.506Z,4.08
2022-11-17T23:25:16.544Z,4.11
2022-11-17T23:27:44.472Z,4.13
2022-11-17T23:30:13.921Z,4.00
2022-11-17T23:32:41.844Z,4.02
2022-11-17T23:35:11.553Z,4.00
2022-11-17T23:37:39.464Z,4.02
2022-11-17T23:40:08.557Z,4.08
2022-11-17T23:42:41.673Z,4.10
2022-11-17T23:45:12.934Z,4.15
2022-11-17T23:47:40.860Z,4.18
2022-11-17T23:50:09.674Z,4.04
2022-11-17T23:52:39.135Z,3.99
2022-11-17T23:55:08.595Z,3.89
2022-11-17T23:57:36.504Z,4.06
